Time;durP1;ratioP1;P1;durP2;ratioP2;P2;SDS_P1;SDS_P2;PMS_P1;PMS_P2;Temp;Humidity;BMP_temperature;BMP_pressure;BME280_temperature;BME280_humidity;BME280_pressure;Samples;Min_cycle;Max_cycle;Signal;HPM_P1;HPM_P2
2022/05/25 00:00:25;;;;;;;3.15;1.58;;;22.10;54.60;;;;;;4822666;29;20105;-79
2022/05/25 00:02:53;;;;;;;3.25;1.60;;;22.10;54.70;;;;;;4822611;29;20051;-79
2022/05/25 00:05:19;;;;;;;2.60;1.50;;;22.10;54.70;;;;;;4836784;29;20034;-79
2022/05/25 00:07:46;;;;;;;2.72;1.50;;;22.10;54.70;;;;;;4822636;29;20086;-79
2022/05/25 00:10:12;;;;;;;2.25;1.58;;;22.10;54.70;;;;;;4821459;29;20035;-79
2022/05/25 00:12:41;;;;;;;2.13;1.40;;;22.10;54.70;;;;;;4822954;29;20058;-79
2022/05/25 00:15:09;;;;;;;2.55;1.63;;;22.10;54.70;;;;;;4822534;29;20054;-79
2022/05/25 00:17:35;;;;;;;2.20;1.50;;;22.10;54.70;;;;;;4822264;29;20050;-79
2022/05/25 00:20:01;;;;;;;1.95;1.48;;;22.10;54.70;;;;;;4821500;29;20499;-79
2022/05/25 00:22:49;;;;;;;2.05;1.27;;;22.10;54.60;;;;;;4822749;29;20041;-79
2022/05/25 00:25:22;;;;;;;2.45;1.45;;;22.10;54.60;;;;;;4806117;29;20030;-79
2022/05/25 00:27:48;;;;;;;2.05;1.48;;;22.00;54.60;;;;;;4822231;29;20038;-79
2022/05/25 00:30:15;;;;;;;2.33;1.40;;;22.10;54.70;;;;;;4822521;29;20034;-79
2022/05/25 00:32:44;;;;;;;2.47;1.65;;;22.10;54.70;;;;;;4821424;29;20038;-79
2022/05/25 00:35:15;;;;;;;2.30;1.38;;;22.10;54.70;;;;;;4821473;29;20058;-79
2022/05/25 00:37:41;;;;;;;2.63;1.70;;;22.10;54.70;;;;;;4822258;29;20483;-79
2022/05/25 00:40:13;;;;;;;2.53;1.40;;;22.10;54.80;;;;;;4821300;29;20373;-79
2022/05/25 00:42:39;;;;;;;2.00;1.33;;;22.00;54.60;;;;;;4822973;29;20038;-79
2022/05/25 00:45:06;;;;;;;3.28;1.55;;;22.10;54.70;;;;;;4823140;29;20135;-80
2022/05/25 00:47:33;;;;;;;3.38;1.55;;;22.00;54.60;;;;;;4822729;29;20080;-79
2022/05/25 00:49:59;;;;;;;2.50;1.52;;;22.00;54.60;;;;;;4821857;29;20121;-79
2022/05/25 00:52:26;;;;;;;3.13;1.65;;;22.00;54.70;;;;;;4822925;29;20122;-80
2022/05/25 00:54:59;;;;;;;2.20;1.70;;;22.00;54.60;;;;;;4821197;29;20038;-79
2022/05/25 00:57:33;;;;;;;2.90;1.70;;;22.10;54.80;;;;;;4836126;29;20034;-79
2022/05/25 01:00:23;;;;;;;1.90;1.42;;;22.00;54.60;;;;;;4820899;29;20038;-79
2022/05/25 01:02:51;;;;;;;3.40;1.75;;;22.00;54.60;;;;;;4822060;29;20496;-79
2022/05/25 01:05:31;;;;;;;3.00;1.60;;;22.00;54.60;;;;;;4836694;29;20034;-79
2022/05/25 01:08:09;;;;;;;2.35;1.60;;;22.10;54.60;;;;;;4822960;29;20034;-79
2022/05/25 01:10:41;;;;;;;1.92;1.50;;;22.10;54.60;;;;;;4821792;29;20053;-80
2022/05/25 01:13:13;;;;;;;2.53;1.50;;;22.10;54.70;;;;;;4822306;29;20041;-80
2022/05/25 01:16:08;;;;;;;2.30;1.70;;;22.10;54.50;;;;;;4825134;29;20047;-79
2022/05/25 01:18:37;;;;;;;1.90;1.40;;;22.10;54.60;;;;;;4824978;29;20079;-80
2022/05/25 01:21:16;;;;;;;2.47;1.45;;;22.10;54.50;;;;;;4838765;29;20508;-80
2022/05/25 01:23:54;;;;;;;1.67;1.38;;;22.00;54.50;;;;;;4839175;29;20411;-80
2022/05/25 01:26:52;;;;;;;2.28;1.40;;;22.10;54.50;;;;;;4825230;29;20046;-80
2022/05/25 01:29:51;;;;;;;2.35;1.42;;;22.00;54.50;;;;;;4823753;29;20076;-80
2022/05/25 01:32:23;;;;;;;1.98;1.48;;;22.00;54.60;;;;;;4823803;29;20055;-80
2022/05/25 01:34:59;;;;;;;2.85;1.63;;;22.00;54.60;;;;;;4838956;29;20416;-79
2022/05/25 01:37:46;;;;;;;2.67;1.75;;;22.00;54.50;;;;;;4824801;29;20030;-78
2022/05/25 01:40:26;;;;;;;2.20;1.40;;;22.00;54.60;;;;;;4838993;29;20039;-79
2022/05/25 01:43:05;;;;;;;1.90;1.30;;;22.00;54.60;;;;;;4823311;29;20049;-80
2022/05/25 01:45:40;;;;;;;2.80;1.60;;;22.00;54.60;;;;;;4824943;29;20087;-80
2022/05/25 01:48:09;;;;;;;2.33;1.30;;;22.00;54.60;;;;;;4824423;29;20039;-79
2022/05/25 01:50:54;;;;;;;1.88;1.40;;;22.00;54.60;;;;;;4825018;29;20031;-79
2022/05/25 01:53:23;;;;;;;2.60;1.42;;;22.00;54.60;;;;;;4824663;29;20065;-79
2022/05/25 01:55:54;;;;;;;3.10;1.58;;;22.00;54.50;;;;;;4824426;29;20038;-79
2022/05/25 01:58:22;;;;;;;1.80;1.30;;;22.00;54.60;;;;;;4824181;29;20134;-79
2022/05/25 02:00:56;;;;;;;1.80;1.30;;;22.00;54.50;;;;;;4824305;29;20038;-80
2022/05/25 02:06:45;;;;;;;1.90;1.40;;;22.00;54.60;;;;;;4823560;29;20062;-78
2022/05/25 02:09:36;;;;;;;2.75;1.67;;;22.00;54.50;;;;;;4822776;29;20127;-79
2022/05/25 02:12:09;;;;;;;2.63;1.48;;;22.00;54.60;;;;;;4824226;29;20030;-79
2022/05/25 02:14:47;;;;;;;2.05;1.50;;;22.00;54.60;;;;;;4824517;29;20030;-79
2022/05/25 02:17:49;;;;;;;2.45;1.50;;;22.00;54.60;;;;;;4824050;29;20026;-79
2022/05/25 02:20:44;;;;;;;2.75;1.42;;;22.00;54.60;;;;;;4824093;29;20061;-80
2022/05/25 02:23:19;;;;;;;2.47;1.80;;;22.00;54.60;;;;;;4823109;29;20102;-79
2022/05/25 02:25:51;;;;;;;1.77;1.33;;;22.00;54.60;;;;;;4822409;29;20058;-79
2022/05/25 02:28:25;;;;;;;3.83;1.50;;;22.00;54.60;;;;;;4823705;29;20026;-79
2022/05/25 02:30:55;;;;;;;2.28;1.52;;;22.00;54.60;;;;;;4823885;29;20336;-79
2022/05/25 02:33:41;;;;;;;2.20;1.40;;;22.00;54.50;;;;;;4824717;29;20070;-80
2022/05/25 02:36:08;;;;;;;2.70;1.67;;;22.00;54.60;;;;;;4822757;29;20035;-79
2022/05/25 02:38:37;;;;;;;1.88;1.38;;;22.00;54.60;;;;;;4822188;29;20420;-80
2022/05/25 02:41:09;;;;;;;2.55;1.48;;;22.00;54.60;;;;;;4823988;29;20038;-80
2022/05/25 02:43:37;;;;;;;2.58;1.40;;;22.00;54.50;;;;;;4822650;29;20159;-80
2022/05/25 02:46:04;;;;;;;1.98;1.50;;;22.00;54.60;;;;;;4824018;29;20433;-80
2022/05/25 02:48:30;;;;;;;2.47;1.48;;;22.00;54.60;;;;;;4823337;29;20050;-80
2022/05/25 02:50:56;;;;;;;2.22;1.55;;;22.00;54.60;;;;;;4823571;29;20057;-80
2022/05/25 02:53:22;;;;;;;1.75;1.25;;;22.00;54.60;;;;;;4823612;29;20065;-80
2022/05/25 02:55:49;;;;;;;2.35;1.50;;;22.00;54.60;;;;;;4823447;29;20038;-79
2022/05/25 02:58:15;;;;;;;2.83;1.50;;;22.00;54.60;;;;;;4823212;29;20385;-80
2022/05/25 03:00:41;;;;;;;2.03;1.40;;;22.00;54.60;;;;;;4807007;29;20507;-80
2022/05/25 03:03:07;;;;;;;2.10;1.42;;;22.00;54.60;;;;;;4823659;29;20063;-80
2022/05/25 03:05:32;;;;;;;1.83;1.42;;;22.00;54.70;;;;;;4823421;29;20041;-79
2022/05/25 03:07:58;;;;;;;2.75;1.55;;;22.00;54.60;;;;;;4823041;29;20083;-79
2022/05/25 03:10:23;;;;;;;2.17;1.65;;;22.00;54.60;;;;;;4823523;29;20031;-79
2022/05/25 03:12:49;;;;;;;2.35;1.70;;;22.00;54.50;;;;;;4823876;29;20038;-79
2022/05/25 03:15:20;;;;;;;2.03;1.40;;;22.00;54.50;;;;;;4824356;29;20037;-79
2022/05/25 03:17:46;;;;;;;2.42;1.63;;;22.00;54.50;;;;;;4823176;29;20096;-80
2022/05/25 03:20:13;;;;;;;2.13;1.45;;;22.00;54.40;;;;;;4823230;29;20046;-79
2022/05/25 03:22:40;;;;;;;2.15;1.50;;;22.00;54.50;;;;;;4823111;29;20039;-79
2022/05/25 03:25:06;;;;;;;2.08;1.40;;;22.00;54.50;;;;;;4822191;29;20038;-79
2022/05/25 03:27:32;;;;;;;2.35;1.52;;;22.00;54.40;;;;;;4821660;29;20042;-79
2022/05/25 03:29:57;;;;;;;1.80;1.40;;;22.00;54.50;;;;;;4823018;29;20042;-79
2022/05/25 03:32:23;;;;;;;3.30;1.63;;;22.00;54.50;;;;;;4837449;29;20106;-79
2022/05/25 03:34:49;;;;;;;2.80;1.48;;;22.00;54.50;;;;;;4823187;29;20102;-79
2022/05/25 03:37:14;;;;;;;2.60;1.65;;;22.00;54.50;;;;;;4822548;29;20030;-79
2022/05/25 03:39:40;;;;;;;2.78;1.80;;;22.00;54.50;;;;;;4821618;29;20050;-79
2022/05/25 03:42:07;;;;;;;2.42;1.48;;;22.00;54.50;;;;;;4836721;29;20038;-79
2022/05/25 03:44:35;;;;;;;1.92;1.35;;;22.00;54.50;;;;;;4806885;29;20046;-79
2022/05/25 03:47:00;;;;;;;1.90;1.48;;;22.00;54.50;;;;;;4822867;29;20050;-79
2022/05/25 03:49:26;;;;;;;2.00;1.48;;;22.00;54.40;;;;;;4822503;29;20433;-78
2022/05/25 03:51:53;;;;;;;3.60;1.90;;;22.00;54.60;;;;;;4822750;29;20030;-79
2022/05/25 03:54:19;;;;;;;1.70;1.40;;;22.00;54.50;;;;;;4821687;29;20027;-78
2022/05/25 03:56:44;;;;;;;2.67;1.70;;;22.00;54.50;;;;;;4822913;29;20093;-78
2022/05/25 03:59:10;;;;;;;3.58;1.98;;;22.00;54.50;;;;;;4822251;29;20040;-78
2022/05/25 04:01:36;;;;;;;2.08;1.42;;;22.00;54.50;;;;;;4822721;29;20081;-80
2022/05/25 04:04:03;;;;;;;2.50;1.63;;;22.00;54.50;;;;;;4822528;29;20085;-78
2022/05/25 04:06:29;;;;;;;2.75;1.85;;;22.00;54.50;;;;;;4821772;29;20103;-79
2022/05/25 04:08:54;;;;;;;2.65;1.67;;;22.00;54.40;;;;;;4822324;29;20488;-79
2022/05/25 04:11:21;;;;;;;3.53;2.00;;;22.00;54.40;;;;;;4822480;29;20045;-79
2022/05/25 04:13:46;;;;;;;3.83;1.83;;;22.00;54.40;;;;;;4822216;29;20501;-79
2022/05/25 04:16:12;;;;;;;3.35;1.70;;;22.00;54.40;;;;;;4822548;29;20066;-79
2022/05/25 04:18:38;;;;;;;4.22;2.00;;;22.00;54.40;;;;;;4836085;29;20062;-79
2022/05/25 04:21:04;;;;;;;3.47;2.00;;;22.00;54.30;;;;;;4822279;29;20038;-79
2022/05/25 04:23:29;;;;;;;2.85;1.98;;;22.00;54.20;;;;;;4822146;29;20030;-79
2022/05/25 04:25:56;;;;;;;2.80;1.90;;;22.00;54.30;;;;;;4822266;29;20399;-79
2022/05/25 04:28:22;;;;;;;3.38;1.85;;;22.00;54.30;;;;;;4822059;29;20058;-78
2022/05/25 04:30:48;;;;;;;3.15;2.00;;;22.00;54.40;;;;;;4822145;29;20026;-79
2022/05/25 04:33:15;;;;;;;3.72;2.10;;;22.00;54.30;;;;;;4822311;29;20023;-79
2022/05/25 04:35:42;;;;;;;2.85;2.20;;;22.00;54.30;;;;;;4822241;29;20042;-78
2022/05/25 04:38:08;;;;;;;3.58;2.20;;;22.00;54.30;;;;;;4822023;29;20030;-79
2022/05/25 04:40:39;;;;;;;3.33;2.05;;;22.00;54.20;;;;;;4821202;29;20031;-78
2022/05/25 04:43:12;;;;;;;2.53;1.73;;;22.00;54.30;;;;;;4822338;29;20031;-80
2022/05/25 04:45:43;;;;;;;4.00;2.25;;;21.90;54.30;;;;;;4822472;29;20030;-79
2022/05/25 04:48:09;;;;;;;3.55;2.13;;;22.00;54.30;;;;;;4823388;29;20059;-79
2022/05/25 04:50:40;;;;;;;3.15;2.10;;;22.00;54.30;;;;;;4825572;29;20030;-80
2022/05/25 04:53:07;;;;;;;3.63;2.13;;;22.00;54.30;;;;;;4839913;29;20034;-80
2022/05/25 04:58:21;;;;;;;3.65;2.38;;;21.90;54.20;;;;;;4839464;29;20038;-81
2022/05/25 05:00:46;;;;;;;2.67;1.90;;;21.90;54.20;;;;;;4824379;29;20038;-80
2022/05/25 05:03:12;;;;;;;3.17;2.20;;;22.00;54.30;;;;;;4825576;29;20043;-80
2022/05/25 05:05:38;;;;;;;2.97;2.03;;;22.00;54.30;;;;;;4825273;29;20038;-80
2022/05/25 05:08:05;;;;;;;3.53;2.15;;;22.00;54.20;;;;;;4825047;29;20034;-80
2022/05/25 05:10:31;;;;;;;3.38;2.15;;;22.00;54.30;;;;;;4825664;29;20030;-79
2022/05/25 05:12:57;;;;;;;3.35;2.13;;;22.00;54.30;;;;;;4839653;29;20564;-80
2022/05/25 05:15:22;;;;;;;2.97;1.90;;;22.00;54.10;;;;;;4825033;29;20078;-80
2022/05/25 05:17:48;;;;;;;3.47;2.22;;;22.00;54.20;;;;;;4823767;29;20034;-81
2022/05/25 05:20:27;;;;;;;4.38;2.45;;;22.00;54.10;;;;;;4823744;29;20081;-81
2022/05/25 05:22:56;;;;;;;3.42;2.30;;;22.00;54.10;;;;;;4809080;29;20065;-79
2022/05/25 05:25:26;;;;;;;3.67;2.60;;;22.00;54.00;;;;;;4839483;29;20034;-79
2022/05/25 05:28:21;;;;;;;3.78;2.20;;;22.00;54.00;;;;;;4823545;29;20130;-81
2022/05/25 05:30:55;;;;;;;3.58;2.30;;;22.00;54.10;;;;;;4825010;29;20430;-81
2022/05/25 05:33:23;;;;;;;3.75;2.40;;;22.00;54.00;;;;;;4824887;29;20117;-81
2022/05/25 05:35:55;;;;;;;3.55;2.17;;;22.00;54.00;;;;;;4824773;29;20042;-80
2022/05/25 05:38:22;;;;;;;4.18;2.65;;;22.00;54.00;;;;;;4824727;29;20036;-81
2022/05/25 05:40:48;;;;;;;4.18;2.50;;;22.00;54.00;;;;;;4808986;29;20042;-81
2022/05/25 05:43:14;;;;;;;3.67;2.20;;;22.00;54.00;;;;;;4808670;29;20423;-81
2022/05/25 05:45:42;;;;;;;5.05;2.60;;;22.00;53.90;;;;;;4824585;29;20077;-81
2022/05/25 05:48:18;;;;;;;3.63;2.42;;;22.00;53.90;;;;;;4824430;29;20058;-81
2022/05/25 05:50:44;;;;;;;4.28;2.47;;;22.00;54.00;;;;;;4824546;29;20484;-80
2022/05/25 05:53:11;;;;;;;4.53;2.30;;;22.00;53.90;;;;;;4824757;29;20050;-82
2022/05/25 05:55:40;;;;;;;4.35;2.50;;;22.00;53.90;;;;;;4808370;29;20416;-81
2022/05/25 05:58:06;;;;;;;4.37;2.57;;;22.00;53.90;;;;;;4824142;29;20027;-81
2022/05/25 06:00:32;;;;;;;5.32;2.75;;;22.00;54.00;;;;;;4822617;29;20090;-81
2022/05/25 06:02:59;;;;;;;3.85;2.30;;;22.00;53.90;;;;;;4823407;29;20031;-81
2022/05/25 06:05:25;;;;;;;4.07;2.70;;;22.00;53.90;;;;;;4824042;29;20034;-82
2022/05/25 06:07:51;;;;;;;3.45;2.45;;;22.00;53.90;;;;;;4823953;29;20073;-81
2022/05/25 06:10:17;;;;;;;6.82;2.45;;;22.00;53.90;;;;;;4838567;29;20117;-81
2022/05/25 06:12:43;;;;;;;4.30;2.60;;;22.00;54.00;;;;;;4823088;29;20033;-81
2022/05/25 06:20:38;;;;;;;4.22;2.60;;;22.00;53.80;;;;;;4823914;29;20050;-81
2022/05/25 06:23:04;;;;;;;3.90;2.60;;;22.00;53.80;;;;;;4824210;29;20032;-82
2022/05/25 06:25:29;;;;;;;4.50;2.80;;;22.00;53.80;;;;;;4824044;29;20034;-81
2022/05/25 06:27:56;;;;;;;4.25;2.63;;;22.00;53.80;;;;;;4823879;29;20052;-81
2022/05/25 06:30:22;;;;;;;4.38;2.80;;;22.00;53.90;;;;;;4823992;29;20028;-82
2022/05/25 06:32:48;;;;;;;4.72;2.78;;;22.00;53.90;;;;;;4822966;29;20323;-81
2022/05/25 06:35:14;;;;;;;3.90;2.55;;;22.00;53.80;;;;;;4823768;29;20062;-81
2022/05/25 06:37:39;;;;;;;4.40;2.80;;;22.00;53.90;;;;;;4823489;29;20030;-80
2022/05/25 06:40:06;;;;;;;4.47;2.70;;;22.00;53.80;;;;;;4823774;29;20086;-80
2022/05/25 06:42:32;;;;;;;4.10;2.70;;;22.00;53.80;;;;;;4823987;29;20157;-80
2022/05/25 06:44:57;;;;;;;3.83;2.58;;;22.00;53.80;;;;;;4822378;29;20432;-80
2022/05/25 06:47:23;;;;;;;5.38;2.78;;;22.00;53.80;;;;;;4823723;29;20376;-81
2022/05/25 06:49:53;;;;;;;4.90;2.92;;;22.00;53.80;;;;;;4837946;29;20030;-81
2022/05/25 06:52:18;;;;;;;5.05;3.08;;;22.00;53.80;;;;;;4823837;29;20027;-81
2022/05/25 06:54:44;;;;;;;5.25;2.90;;;22.00;53.90;;;;;;4837820;29;20045;-80
2022/05/25 06:57:10;;;;;;;3.97;2.60;;;22.00;53.90;;;;;;4822713;29;20130;-80
2022/05/25 06:59:36;;;;;;;5.50;3.00;;;22.00;53.80;;;;;;4823095;29;20515;-80
2022/05/25 07:02:02;;;;;;;4.65;3.20;;;22.00;53.90;;;;;;4823387;29;20396;-80
2022/05/25 07:04:28;;;;;;;6.03;3.30;;;22.00;53.90;;;;;;4837517;29;20035;-80
2022/05/25 07:06:53;;;;;;;5.32;2.80;;;22.00;53.90;;;;;;4823420;29;20043;-80
2022/05/25 07:09:19;;;;;;;5.32;3.13;;;22.00;53.90;;;;;;4823050;29;20038;-80
2022/05/25 07:11:50;;;;;;;4.63;3.03;;;22.00;53.90;;;;;;4836589;29;20022;-80
2022/05/25 07:14:16;;;;;;;5.45;3.42;;;22.00;53.90;;;;;;4821948;29;20034;-79
2022/05/25 07:16:42;;;;;;;4.32;3.00;;;22.00;53.90;;;;;;4823279;29;20041;-80
2022/05/25 07:19:08;;;;;;;4.63;2.90;;;22.00;53.90;;;;;;4836788;29;20381;-80
2022/05/25 07:21:34;;;;;;;4.80;3.13;;;22.00;53.90;;;;;;4822405;29;20027;-80
2022/05/25 07:24:01;;;;;;;5.22;2.97;;;22.00;53.90;;;;;;4823340;29;20031;-80
2022/05/25 07:26:29;;;;;;;5.38;3.20;;;22.00;53.90;;;;;;4822976;29;20034;-80
2022/05/25 07:28:55;;;;;;;4.50;3.10;;;22.00;53.80;;;;;;4822886;29;20030;-79
2022/05/25 07:31:36;;;;;;;5.60;3.30;;;22.00;53.90;;;;;;4823248;29;20055;-80
2022/05/25 07:34:04;;;;;;;5.07;3.13;;;22.00;53.90;;;;;;4823147;29;20049;-79
2022/05/25 07:36:32;;;;;;;5.63;3.25;;;22.00;53.90;;;;;;4823276;29;20092;-80
2022/05/25 07:39:02;;;;;;;4.53;3.05;;;22.00;53.80;;;;;;4822554;29;20034;-79
2022/05/25 07:41:29;;;;;;;5.30;3.05;;;22.00;53.90;;;;;;4823011;29;20034;-79
2022/05/25 07:43:59;;;;;;;4.78;3.15;;;22.00;53.80;;;;;;4823010;29;20488;-80
2022/05/25 07:46:27;;;;;;;5.40;3.28;;;22.00;53.80;;;;;;4822994;29;20175;-79
2022/05/25 07:48:53;;;;;;;6.50;3.35;;;22.00;53.90;;;;;;4822528;29;20033;-79
2022/05/25 07:51:19;;;;;;;5.00;3.10;;;22.00;53.80;;;;;;4836685;29;20039;-80
2022/05/25 07:53:57;;;;;;;5.00;3.25;;;22.00;53.90;;;;;;4822881;29;20030;-80
2022/05/25 07:56:35;;;;;;;5.30;3.13;;;22.00;53.90;;;;;;4822787;29;20407;-80
2022/05/25 07:59:03;;;;;;;5.10;3.10;;;22.00;53.90;;;;;;4822395;29;20032;-81
2022/05/25 08:07:07;;;;;;;5.00;3.15;;;22.00;53.90;;;;;;4822998;29;20045;-79
2022/05/25 08:09:33;;;;;;;5.80;3.40;;;22.00;53.90;;;;;;4836104;29;20332;-79
2022/05/25 08:12:00;;;;;;;5.20;3.22;;;22.00;53.90;;;;;;4822486;29;20034;-79
2022/05/25 08:14:28;;;;;;;6.00;3.40;;;22.00;54.00;;;;;;4821477;29;20026;-80
2022/05/25 08:16:54;;;;;;;6.15;3.67;;;22.00;54.00;;;;;;4822848;29;20068;-80
2022/05/25 08:19:21;;;;;;;4.95;3.17;;;22.00;53.90;;;;;;4822033;29;20073;-80
2022/05/25 08:21:48;;;;;;;5.80;3.63;;;22.00;54.50;;;;;;4822456;29;20038;-80
2022/05/25 08:24:15;;;;;;;8.02;3.60;;;22.00;54.00;;;;;;4809456;29;20484;-80
2022/05/25 08:26:41;;;;;;;6.22;3.47;;;22.00;53.90;;;;;;4826098;29;20034;-80
2022/05/25 08:29:07;;;;;;;5.65;3.33;;;22.00;53.90;;;;;;4824507;29;20030;-80
2022/05/25 08:31:33;;;;;;;4.45;3.05;;;22.00;53.80;;;;;;4825902;29;20487;-80
2022/05/25 08:33:59;;;;;;;5.60;3.50;;;22.00;53.80;;;;;;4825937;29;20628;-80
2022/05/25 08:36:25;;;;;;;4.88;3.08;;;22.10;53.80;;;;;;4809758;29;20068;-80
2022/05/25 08:38:52;;;;;;;5.20;3.35;;;22.10;53.80;;;;;;4825858;29;20038;-80
2022/05/25 08:41:24;;;;;;;5.60;3.20;;;22.10;53.80;;;;;;4809549;29;20427;-80
2022/05/25 08:43:50;;;;;;;6.18;3.53;;;22.10;53.80;;;;;;4839987;29;20102;-79
2022/05/25 08:46:22;;;;;;;4.60;3.10;;;22.10;53.80;;;;;;4825497;29;20039;-80
2022/05/25 08:48:48;;;;;;;5.80;3.45;;;22.10;53.80;;;;;;4824294;29;20411;-80
2022/05/25 08:51:17;;;;;;;5.53;3.47;;;22.10;53.80;;;;;;4825584;29;20125;-80
2022/05/25 08:53:44;;;;;;;5.07;3.28;;;22.10;53.80;;;;;;4825653;29;20035;-80
2022/05/25 08:56:19;;;;;;;6.13;3.67;;;22.10;53.90;;;;;;4839566;29;20488;-80
2022/05/25 08:59:10;;;;;;;6.47;3.40;;;22.00;53.80;;;;;;4825420;29;20074;-80
2022/05/25 09:01:47;;;;;;;5.65;3.38;;;22.00;53.80;;;;;;4840100;29;20046;-80
2022/05/25 09:04:36;;;;;;;5.47;3.28;;;22.00;53.80;;;;;;4825433;29;20038;-79
2022/05/25 09:07:28;;;;;;;6.57;3.78;;;22.00;53.80;;;;;;4824097;29;20038;-79
2022/05/25 09:09:54;;;;;;;5.22;3.33;;;22.00;53.80;;;;;;4839452;29;20038;-79
2022/05/25 09:12:43;;;;;;;5.85;3.53;;;22.10;53.90;;;;;;4825408;29;20027;-80
2022/05/25 09:15:23;;;;;;;5.95;3.65;;;22.10;53.80;;;;;;4825168;29;20445;-80
2022/05/25 09:17:55;;;;;;;5.68;3.53;;;22.10;53.80;;;;;;4825109;29;20046;-79
2022/05/25 09:20:27;;;;;;;4.53;2.95;;;22.10;53.90;;;;;;4823891;29;20113;-79
2022/05/25 09:22:55;;;;;;;5.53;3.20;;;22.10;53.90;;;;;;4824062;29;20077;-80
2022/05/25 09:25:21;;;;;;;5.88;3.72;;;22.10;53.80;;;;;;4824997;29;20497;-80
2022/05/25 09:28:16;;;;;;;5.60;3.50;;;22.10;53.80;;;;;;4823437;29;20105;-80
2022/05/25 09:30:45;;;;;;;5.60;3.45;;;22.10;53.90;;;;;;4823698;29;20030;-80
2022/05/25 09:33:24;;;;;;;5.72;3.35;;;22.10;53.80;;;;;;4824025;29;20038;-79
2022/05/25 09:35:58;;;;;;;6.10;3.45;;;22.10;53.70;;;;;;4824008;29;20073;-79
2022/05/25 09:38:35;;;;;;;5.63;3.50;;;22.10;53.70;;;;;;4824748;29;20053;-80
2022/05/25 09:41:06;;;;;;;6.90;3.45;;;22.10;54.30;;;;;;4824697;29;20030;-79
2022/05/25 09:43:33;;;;;;;5.90;3.22;;;22.10;53.80;;;;;;4825018;29;20590;-80
2022/05/25 09:46:08;;;;;;;5.20;3.25;;;22.10;53.80;;;;;;4823625;29;20034;-79
2022/05/25 09:48:53;;;;;;;5.13;3.08;;;22.10;53.80;;;;;;4839024;29;20369;-79
2022/05/25 09:51:34;;;;;;;5.13;3.13;;;22.10;53.90;;;;;;4823815;29;20388;-79
2022/05/25 09:54:55;;;;;;;5.45;3.00;;;22.10;53.70;;;;;;4825003;29;20041;-78
2022/05/25 09:57:34;;;;;;;4.97;3.00;;;22.10;53.80;;;;;;4806926;29;20042;-79
2022/05/25 10:00:23;;;;;;;5.32;3.20;;;22.10;53.80;;;;;;4824144;29;20054;-80
2022/05/25 10:02:57;;;;;;;5.50;3.25;;;22.10;53.80;;;;;;4824633;29;20078;-79
2022/05/25 10:05:27;;;;;;;4.95;3.30;;;22.10;53.70;;;;;;4824867;29;20121;-79
2022/05/25 10:08:02;;;;;;;;;;;22.10;53.80;;;;;;4838585;29;20511;-79
2022/05/25 10:10:50;;;;;;;5.60;3.33;;;22.10;53.80;;;;;;4825068;29;19913;-80
2022/05/25 10:13:21;;;;;;;6.35;2.95;;;22.10;53.70;;;;;;4824492;29;20027;-79
2022/05/25 10:15:51;;;;;;;4.40;2.78;;;22.10;53.80;;;;;;4824300;29;20377;-79
2022/05/25 10:18:49;;;;;;;5.75;3.45;;;22.10;53.80;;;;;;4824240;29;20027;-80
2022/05/25 10:21:31;;;;;;;6.18;3.38;;;22.20;53.80;;;;;;4838029;29;20039;-80
2022/05/25 10:23:58;;;;;;;5.38;3.10;;;22.10;53.70;;;;;;4824283;29;20535;-80
2022/05/25 10:26:32;;;;;;;5.50;3.40;;;22.10;53.90;;;;;;4822736;29;20439;-80
2022/05/25 10:29:05;;;;;;;5.60;3.35;;;22.10;53.70;;;;;;4823711;29;20026;-80
2022/05/25 10:37:17;;;;;;;4.78;3.08;;;22.10;53.70;;;;;;4807431;29;20035;-79
2022/05/25 10:39:56;;;;;;;4.50;3.03;;;22.10;53.70;;;;;;4824083;29;20042;-79
2022/05/25 10:42:29;;;;;;;5.13;3.20;;;22.20;53.80;;;;;;4823610;29;20106;-79
2022/05/25 10:45:08;;;;;;;5.43;3.10;;;22.20;53.80;;;;;;4838071;29;20121;-80
2022/05/25 10:47:49;;;;;;;5.43;3.10;;;22.20;53.80;;;;;;4823374;29;20440;-80
2022/05/25 10:50:33;;;;;;;4.75;3.10;;;22.10;53.80;;;;;;4837888;29;20404;-80
2022/05/25 10:53:23;;;;;;;5.72;3.03;;;22.10;53.90;;;;;;4822268;29;20126;-79
2022/05/25 10:56:04;;;;;;;4.30;3.00;;;22.10;53.80;;;;;;4807508;29;20035;-79
2022/05/25 10:58:46;;;;;;;5.03;3.10;;;22.10;53.70;;;;;;4823241;29;20066;-79
2022/05/25 11:01:35;;;;;;;4.63;3.00;;;22.10;53.70;;;;;;4822384;29;20508;-79
2022/05/25 11:04:31;;;;;;;4.55;2.63;;;22.10;53.70;;;;;;4823994;29;20036;-79
2022/05/25 11:07:14;;;;;;;5.10;3.28;;;22.10;53.70;;;;;;4822322;29;20396;-79
2022/05/25 11:10:24;;;;;;;4.43;2.80;;;22.20;53.70;;;;;;4823322;29;20083;-80
2022/05/25 11:13:23;;;;;;;4.35;2.88;;;22.10;53.80;;;;;;4823339;29;20123;-79
2022/05/25 11:16:15;;;;;;;4.97;3.20;;;22.10;53.70;;;;;;4823312;29;20039;-79
2022/05/25 11:19:15;;;;;;;5.40;3.17;;;22.10;53.80;;;;;;4823314;29;20038;-80
2022/05/25 11:21:40;;;;;;;;;;;22.10;53.70;;;;;;4824094;29;20042;-79
2022/05/25 11:24:32;;;;;;;4.72;3.15;;;22.10;53.70;;;;;;4823118;29;19922;-80
2022/05/25 11:27:13;;;;;;;4.55;3.05;;;22.10;53.80;;;;;;4821851;29;20049;-79
2022/05/25 11:29:58;;;;;;;5.15;3.10;;;22.10;53.80;;;;;;4823081;29;20033;-80
2022/05/25 11:32:45;;;;;;;3.95;2.65;;;22.10;53.80;;;;;;4823132;29;20171;-79
2022/05/25 11:35:46;;;;;;;4.80;2.90;;;22.10;53.70;;;;;;4822195;29;20058;-79
2022/05/25 11:38:29;;;;;;;4.32;2.65;;;22.10;53.80;;;;;;4822800;29;20098;-79
2022/05/25 11:41:11;;;;;;;4.75;2.67;;;22.10;53.80;;;;;;4821737;29;20061;-79
2022/05/25 11:43:52;;;;;;;5.38;2.85;;;22.10;53.80;;;;;;4823106;29;20034;-78
2022/05/25 11:46:42;;;;;;;4.28;2.70;;;22.10;53.80;;;;;;4821816;29;20057;-78
2022/05/25 11:49:38;;;;;;;5.93;2.63;;;22.10;53.70;;;;;;4822445;29;20037;-80
2022/05/25 11:52:36;;;;;;;5.00;2.97;;;22.10;53.80;;;;;;4806471;29;20587;-79
2022/05/25 11:55:30;;;;;;;5.57;3.15;;;22.10;53.70;;;;;;4806597;29;20046;-80
2022/05/25 11:58:16;;;;;;;4.68;3.10;;;22.10;53.70;;;;;;4822241;29;20050;-79
2022/05/25 12:01:03;;;;;;;4.53;3.00;;;22.10;53.70;;;;;;4836956;29;20042;-79
2022/05/25 12:03:43;;;;;;;4.22;2.83;;;22.10;53.70;;;;;;4821842;29;20099;-79
2022/05/25 12:06:43;;;;;;;5.05;2.60;;;22.10;53.80;;;;;;4823299;29;20114;-79
2022/05/25 12:09:26;;;;;;;4.45;2.85;;;22.10;53.80;;;;;;4821179;29;20035;-79
2022/05/25 12:12:17;;;;;;;3.58;2.70;;;22.10;53.80;;;;;;4821316;29;20476;-79
2022/05/25 12:14:57;;;;;;;4.55;2.80;;;22.10;53.80;;;;;;4806272;29;20041;-79
2022/05/25 12:17:48;;;;;;;4.18;2.63;;;22.10;53.80;;;;;;4822416;29;20034;-79
2022/05/25 12:20:24;;;;;;;3.67;2.60;;;22.10;53.80;;;;;;4822353;29;20515;-80
2022/05/25 12:22:52;;;;;;;3.78;2.60;;;22.10;53.90;;;;;;4821585;29;20042;-79
2022/05/25 12:25:20;;;;;;;5.40;3.30;;;22.10;53.90;;;;;;4821561;29;20045;-80
2022/05/25 12:27:52;;;;;;;4.72;2.75;;;22.10;53.90;;;;;;4820823;29;20568;-80
2022/05/25 12:30:37;;;;;;;4.53;2.80;;;22.10;53.80;;;;;;4822711;29;20081;-80
2022/05/25 12:33:07;;;;;;;3.95;2.50;;;22.10;53.80;;;;;;4820699;29;20117;-81
2022/05/25 12:35:35;;;;;;;4.13;3.00;;;22.10;54.00;;;;;;4822185;29;20035;-80
2022/05/25 12:38:06;;;;;;;4.20;2.97;;;22.10;53.90;;;;;;4806120;29;20082;-80
2022/05/25 12:40:40;;;;;;;4.15;2.90;;;22.10;53.90;;;;;;4836676;29;20038;-80
2022/05/25 12:43:35;;;;;;;3.70;2.60;;;22.10;54.00;;;;;;4822365;29;20526;-79
2022/05/25 12:49:03;;;;;;;4.63;2.80;;;22.10;54.00;;;;;;4835878;29;20469;-80
2022/05/25 12:51:33;;;;;;;4.85;3.10;;;22.10;54.00;;;;;;4820963;29;20041;-79
2022/05/25 12:54:05;;;;;;;3.53;2.58;;;22.10;53.90;;;;;;4821061;29;20042;-80
2022/05/25 12:56:38;;;;;;;4.80;3.13;;;22.10;53.80;;;;;;4822240;29;20038;-80
2022/05/25 12:59:11;;;;;;;4.85;2.80;;;22.10;53.90;;;;;;4822038;29;20034;-80
2022/05/25 13:02:01;;;;;;;4.50;3.00;;;22.10;53.90;;;;;;4820941;29;20042;-80
2022/05/25 13:04:50;;;;;;;3.42;2.28;;;22.10;54.00;;;;;;4822016;29;20451;-80
2022/05/25 13:07:44;;;;;;;4.20;2.58;;;22.10;53.90;;;;;;4821952;29;20042;-80
2022/05/25 13:10:30;;;;;;;4.32;2.50;;;22.10;53.80;;;;;;4825163;29;20030;-81
2022/05/25 13:12:56;;;;;;;4.13;2.45;;;22.10;53.90;;;;;;4839664;29;20046;-80
2022/05/25 13:15:22;;;;;;;3.75;2.50;;;22.10;53.90;;;;;;4824508;29;20491;-81
2022/05/25 13:17:50;;;;;;;4.70;2.78;;;22.10;54.00;;;;;;4824918;29;20037;-81
2022/05/25 13:20:28;;;;;;;4.57;3.03;;;22.10;53.90;;;;;;4824933;29;20536;-82
2022/05/25 13:23:03;;;;;;;3.58;2.50;;;22.10;53.90;;;;;;4824819;29;20109;-81
2022/05/25 13:25:55;;;;;;;3.55;2.30;;;22.10;53.90;;;;;;4824048;29;20095;-83
2022/05/25 13:28:43;;;;;;;3.55;2.35;;;22.10;53.90;;;;;;4823656;29;20109;-82
2022/05/25 13:31:43;;;;;;;4.78;2.83;;;22.10;53.90;;;;;;4839614;29;20065;-81
2022/05/25 13:34:17;;;;;;;6.25;2.72;;;22.10;53.80;;;;;;4823886;29;20022;-81
2022/05/25 13:36:48;;;;;;;4.53;2.72;;;22.10;54.10;;;;;;4826568;29;20048;-82
2022/05/25 13:39:24;;;;;;;4.75;2.88;;;22.10;54.20;;;;;;4842831;29;20037;-82
2022/05/25 13:41:55;;;;;;;6.15;2.70;;;22.10;54.40;;;;;;4857571;29;20046;-80
2022/05/25 13:44:29;;;;;;;5.57;2.53;;;22.10;54.50;;;;;;4843353;29;20403;-80